sensor_id;sensor_type;location;lat;lon;timestamp;pressure;altitude;pressure_sealevel;temperature;humidity
72677;BME280;60755;51.374;10.662;2022-08-04T00:00:52;97192.94;;;18.74;64.06
72677;BME280;60755;51.374;10.662;2022-08-04T00:03:27;97192.72;;;18.70;65.10
72677;BME280;60755;51.374;10.662;2022-08-04T00:05:59;97196.75;;;18.68;65.21
72677;BME280;60755;51.374;10.662;2022-08-04T00:08:40;97199.97;;;18.65;65.10
72677;BME280;60755;51.374;10.662;2022-08-04T00:11:10;97194.44;;;18.61;65.91
72677;BME280;60755;51.374;10.662;2022-08-04T00:13:41;97193.34;;;18.62;64.82
72677;BME280;60755;51.374;10.662;2022-08-04T00:16:12;97195.28;;;18.57;65.24
72677;BME280;60755;51.374;10.662;2022-08-04T00:18:41;97194.94;;;18.63;64.95
72677;BME280;60755;51.374;10.662;2022-08-04T00:21:12;97195.22;;;18.62;64.22
72677;BME280;60755;51.374;10.662;2022-08-04T00:23:42;97195.00;;;18.58;64.53
72677;BME280;60755;51.374;10.662;2022-08-04T00:26:09;97187.28;;;18.57;65.08
72677;BME280;60755;51.374;10.662;2022-08-04T00:28:36;97192.63;;;18.57;64.27
72677;BME280;60755;51.374;10.662;2022-08-04T00:31:03;97191.09;;;18.51;64.76
72677;BME280;60755;51.374;10.662;2022-08-04T00:33:31;97194.03;;;18.49;64.46
72677;BME280;60755;51.374;10.662;2022-08-04T00:35:59;97188.22;;;18.47;64.86
72677;BME280;60755;51.374;10.662;2022-08-04T00:38:28;97189.00;;;18.48;65.28
72677;BME280;60755;51.374;10.662;2022-08-04T00:41:05;97188.44;;;18.51;64.78
72677;BME280;60755;51.374;10.662;2022-08-04T00:43:39;97184.84;;;18.41;65.44
72677;BME280;60755;51.374;10.662;2022-08-04T00:46:25;97186.56;;;18.32;65.70
72677;BME280;60755;51.374;10.662;2022-08-04T00:52:14;97188.72;;;18.30;64.85
72677;BME280;60755;51.374;10.662;2022-08-04T00:55:03;97182.94;;;18.23;65.11
72677;BME280;60755;51.374;10.662;2022-08-04T00:57:43;97186.16;;;18.20;64.66
72677;BME280;60755;51.374;10.662;2022-08-04T01:00:16;97187.06;;;18.10;66.16
72677;BME280;60755;51.374;10.662;2022-08-04T01:02:53;97180.19;;;18.09;66.22
72677;BME280;60755;51.374;10.662;2022-08-04T01:05:30;97183.97;;;18.03;68.19
72677;BME280;60755;51.374;10.662;2022-08-04T01:08:10;97179.16;;;18.05;66.35
72677;BME280;60755;51.374;10.662;2022-08-04T01:10:56;97177.84;;;18.03;67.02
72677;BME280;60755;51.374;10.662;2022-08-04T01:13:47;97180.59;;;17.98;66.67
72677;BME280;60755;51.374;10.662;2022-08-04T01:16:20;97179.81;;;17.97;67.02
72677;BME280;60755;51.374;10.662;2022-08-04T01:18:56;97188.81;;;17.96;66.87
72677;BME280;60755;51.374;10.662;2022-08-04T01:21:55;97184.31;;;17.97;67.46
72677;BME280;60755;51.374;10.662;2022-08-04T01:24:33;97186.75;;;17.93;66.86
72677;BME280;60755;51.374;10.662;2022-08-04T01:27:09;97176.94;;;17.88;66.40
72677;BME280;60755;51.374;10.662;2022-08-04T01:29:44;97180.69;;;17.87;66.09
72677;BME280;60755;51.374;10.662;2022-08-04T01:32:18;97175.34;;;17.87;65.80
72677;BME280;60755;51.374;10.662;2022-08-04T01:34:50;97180.97;;;17.86;66.27
72677;BME280;60755;51.374;10.662;2022-08-04T01:37:23;97174.34;;;17.83;65.82
72677;BME280;60755;51.374;10.662;2022-08-04T01:39:59;97179.69;;;17.83;66.58
72677;BME280;60755;51.374;10.662;2022-08-04T01:42:30;97177.56;;;17.80;65.57
72677;BME280;60755;51.374;10.662;2022-08-04T01:44:59;97180.22;;;17.80;66.66
72677;BME280;60755;51.374;10.662;2022-08-04T01:47:28;97180.78;;;17.77;66.35
72677;BME280;60755;51.374;10.662;2022-08-04T01:50:05;97175.53;;;17.72;66.44
72677;BME280;60755;51.374;10.662;2022-08-04T01:52:34;97176.84;;;17.70;67.44
72677;BME280;60755;51.374;10.662;2022-08-04T01:55:04;97180.34;;;17.70;66.90
72677;BME280;60755;51.374;10.662;2022-08-04T01:57:32;97178.19;;;17.72;65.79
72677;BME280;60755;51.374;10.662;2022-08-04T02:00:00;97178.47;;;17.71;66.16
72677;BME280;60755;51.374;10.662;2022-08-04T02:02:27;97172.94;;;17.62;66.10
72677;BME280;60755;51.374;10.662;2022-08-04T02:04:54;97176.72;;;17.56;66.41
72677;BME280;60755;51.374;10.662;2022-08-04T02:07:30;97171.69;;;17.54;65.84
72677;BME280;60755;51.374;10.662;2022-08-04T02:10:03;97178.94;;;17.49;66.49
72677;BME280;60755;51.374;10.662;2022-08-04T02:12:42;97170.97;;;17.49;66.96
72677;BME280;60755;51.374;10.662;2022-08-04T02:15:26;97167.28;;;17.45;67.12
72677;BME280;60755;51.374;10.662;2022-08-04T02:17:58;97170.44;;;17.47;67.32
72677;BME280;60755;51.374;10.662;2022-08-04T02:20:29;97167.56;;;17.43;67.50
72677;BME280;60755;51.374;10.662;2022-08-04T02:23:09;97166.47;;;17.44;67.82
72677;BME280;60755;51.374;10.662;2022-08-04T02:25:38;97165.97;;;17.42;66.81
72677;BME280;60755;51.374;10.662;2022-08-04T02:28:12;97168.44;;;17.33;66.86
72677;BME280;60755;51.374;10.662;2022-08-04T02:30:49;97167.31;;;17.40;66.34
72677;BME280;60755;51.374;10.662;2022-08-04T02:33:22;97171.03;;;17.39;66.97
72677;BME280;60755;51.374;10.662;2022-08-04T02:35:59;97162.06;;;17.34;66.82
72677;BME280;60755;51.374;10.662;2022-08-04T02:41:16;97161.34;;;17.24;67.81
72677;BME280;60755;51.374;10.662;2022-08-04T02:43:46;97159.50;;;17.48;66.38
72677;BME280;60755;51.374;10.662;2022-08-04T02:46:16;97155.56;;;17.46;66.50
72677;BME280;60755;51.374;10.662;2022-08-04T02:48:45;97151.97;;;17.31;67.20
72677;BME280;60755;51.374;10.662;2022-08-04T02:51:14;97155.72;;;17.30;66.53
72677;BME280;60755;51.374;10.662;2022-08-04T02:53:41;97149.38;;;17.26;66.43
72677;BME280;60755;51.374;10.662;2022-08-04T02:56:08;97150.97;;;17.27;67.83
72677;BME280;60755;51.374;10.662;2022-08-04T02:58:37;97146.94;;;17.30;66.39
72677;BME280;60755;51.374;10.662;2022-08-04T03:01:03;97145.94;;;17.26;66.59
72677;BME280;60755;51.374;10.662;2022-08-04T03:03:37;97143.59;;;17.19;69.03
72677;BME280;60755;51.374;10.662;2022-08-04T03:06:38;97145.69;;;17.22;68.15
72677;BME280;60755;51.374;10.662;2022-08-04T03:09:39;97147.84;;;17.20;66.92
72677;BME280;60755;51.374;10.662;2022-08-04T03:12:25;97141.44;;;17.21;67.45
72677;BME280;60755;51.374;10.662;2022-08-04T03:15:20;97143.34;;;17.16;66.84
72677;BME280;60755;51.374;10.662;2022-08-04T03:18:15;97139.69;;;17.12;67.75
72677;BME280;60755;51.374;10.662;2022-08-04T03:21:08;97142.63;;;17.10;66.80
72677;BME280;60755;51.374;10.662;2022-08-04T03:24:14;97139.97;;;17.10;67.65
72677;BME280;60755;51.374;10.662;2022-08-04T03:27:16;97146.84;;;17.11;67.40
72677;BME280;60755;51.374;10.662;2022-08-04T03:30:08;97144.13;;;17.16;67.06
72677;BME280;60755;51.374;10.662;2022-08-04T03:38:50;97151.59;;;17.14;67.42
72677;BME280;60755;51.374;10.662;2022-08-04T03:41:34;97142.09;;;17.08;67.12
72677;BME280;60755;51.374;10.662;2022-08-04T03:47:44;97152.34;;;17.20;66.93
72677;BME280;60755;51.374;10.662;2022-08-04T03:50:36;97152.66;;;17.18;66.75
72677;BME280;60755;51.374;10.662;2022-08-04T03:53:30;97150.41;;;17.30;66.75
72677;BME280;60755;51.374;10.662;2022-08-04T03:56:35;97152.53;;;17.28;66.39
72677;BME280;60755;51.374;10.662;2022-08-04T03:59:35;97153.91;;;17.26;66.17
72677;BME280;60755;51.374;10.662;2022-08-04T04:05:36;97147.41;;;17.66;65.79
72677;BME280;60755;51.374;10.662;2022-08-04T04:08:18;97144.66;;;17.76;66.43
72677;BME280;60755;51.374;10.662;2022-08-04T04:11:09;97155.25;;;18.43;63.98
72677;BME280;60755;51.374;10.662;2022-08-04T04:13:54;97144.91;;;19.31;61.06
72677;BME280;60755;51.374;10.662;2022-08-04T04:16:37;97148.28;;;20.60;56.96
72677;BME280;60755;51.374;10.662;2022-08-04T04:22:21;97143.91;;;22.59;52.34
72677;BME280;60755;51.374;10.662;2022-08-04T04:25:07;97151.16;;;23.83;50.08
72677;BME280;60755;51.374;10.662;2022-08-04T04:27:46;97148.47;;;24.84;45.81
72677;BME280;60755;51.374;10.662;2022-08-04T04:30:19;97146.59;;;25.18;45.82
72677;BME280;60755;51.374;10.662;2022-08-04T04:33:04;97135.34;;;25.94;44.76
72677;BME280;60755;51.374;10.662;2022-08-04T04:35:37;97139.13;;;26.82;42.94
72677;BME280;60755;51.374;10.662;2022-08-04T04:38:37;97140.94;;;27.34;40.96
72677;BME280;60755;51.374;10.662;2022-08-04T04:41:35;97136.75;;;27.21;41.26
72677;BME280;60755;51.374;10.662;2022-08-04T04:44:41;97145.25;;;26.95;41.93
72677;BME280;60755;51.374;10.662;2022-08-04T04:47:25;97136.06;;;26.96;43.63
72677;BME280;60755;51.374;10.662;2022-08-04T04:50:03;97134.72;;;27.93;42.08
72677;BME280;60755;51.374;10.662;2022-08-04T04:52:37;97137.69;;;28.93;39.81
72677;BME280;60755;51.374;10.662;2022-08-04T04:55:11;97138.31;;;29.68;38.65
72677;BME280;60755;51.374;10.662;2022-08-04T04:57:40;97142.34;;;30.27;35.92
72677;BME280;60755;51.374;10.662;2022-08-04T05:00:08;97131.00;;;31.11;37.23
72677;BME280;60755;51.374;10.662;2022-08-04T05:03:03;97135.06;;;30.91;37.01
72677;BME280;60755;51.374;10.662;2022-08-04T05:05:45;97137.16;;;30.45;36.71
72677;BME280;60755;51.374;10.662;2022-08-04T05:14:31;97135.00;;;29.13;41.69
72677;BME280;60755;51.374;10.662;2022-08-04T05:17:02;97131.88;;;29.76;40.75
72677;BME280;60755;51.374;10.662;2022-08-04T05:19:42;97136.56;;;30.05;39.39
72677;BME280;60755;51.374;10.662;2022-08-04T05:22:11;97132.06;;;30.66;37.85
72677;BME280;60755;51.374;10.662;2022-08-04T05:24:43;97137.63;;;31.48;37.27
72677;BME280;60755;51.374;10.662;2022-08-04T05:27:14;97139.63;;;31.54;37.82
72677;BME280;60755;51.374;10.662;2022-08-04T05:29:45;97129.75;;;31.80;37.71
72677;BME280;60755;51.374;10.662;2022-08-04T05:32:15;97140.97;;;32.92;35.01
72677;BME280;60755;51.374;10.662;2022-08-04T05:34:52;97141.91;;;33.49;34.37
72677;BME280;60755;51.374;10.662;2022-08-04T05:37:21;97131.78;;;33.64;33.75
72677;BME280;60755;51.374;10.662;2022-08-04T05:39:55;97130.25;;;34.02;32.79
72677;BME280;60755;51.374;10.662;2022-08-04T05:42:22;97134.91;;;34.19;32.52
72677;BME280;60755;51.374;10.662;2022-08-04T05:44:50;97137.22;;;34.28;33.86
72677;BME280;60755;51.374;10.662;2022-08-04T05:47:17;97143.03;;;34.52;32.89
72677;BME280;60755;51.374;10.662;2022-08-04T05:49:47;97139.28;;;35.15;32.12
72677;BME280;60755;51.374;10.662;2022-08-04T05:52:14;97135.19;;;35.48;31.68
72677;BME280;60755;51.374;10.662;2022-08-04T05:54:41;97138.81;;;35.90;31.18
72677;BME280;60755;51.374;10.662;2022-08-04T05:57:08;97147.78;;;36.35;29.38
72677;BME280;60755;51.374;10.662;2022-08-04T05:59:37;97140.50;;;36.59;29.37
72677;BME280;60755;51.374;10.662;2022-08-04T06:02:07;97136.00;;;36.42;29.67
72677;BME280;60755;51.374;10.662;2022-08-04T06:04:37;97137.25;;;35.89;29.05
72677;BME280;60755;51.374;10.662;2022-08-04T06:07:06;97135.75;;;35.77;30.29
72677;BME280;60755;51.374;10.662;2022-08-04T06:09:36;97135.50;;;36.81;29.04
72677;BME280;60755;51.374;10.662;2022-08-04T06:12:06;97132.19;;;37.28;29.54
72677;BME280;60755;51.374;10.662;2022-08-04T06:14:37;97138.72;;;37.64;28.85
72677;BME280;60755;51.374;10.662;2022-08-04T06:17:06;97129.34;;;37.89;27.90
72677;BME280;60755;51.374;10.662;2022-08-04T06:19:34;97142.75;;;38.50;27.25
72677;BME280;60755;51.374;10.662;2022-08-04T06:22:05;97134.56;;;39.06;25.84
72677;BME280;60755;51.374;10.662;2022-08-04T06:24:35;97141.75;;;38.40;28.48
72677;BME280;60755;51.374;10.662;2022-08-04T06:27:03;97147.91;;;38.28;28.60
72677;BME280;60755;51.374;10.662;2022-08-04T06:29:31;97149.97;;;39.39;27.89
72677;BME280;60755;51.374;10.662;2022-08-04T06:32:01;97141.03;;;40.17;25.29
72677;BME280;60755;51.374;10.662;2022-08-04T06:34:38;97142.13;;;40.65;25.51
72677;BME280;60755;51.374;10.662;2022-08-04T06:37:06;97143.88;;;40.59;25.55
72677;BME280;60755;51.374;10.662;2022-08-04T06:39:34;97142.78;;;39.78;25.18
72677;BME280;60755;51.374;10.662;2022-08-04T06:42:02;97143.66;;;40.66;21.29
72677;BME280;60755;51.374;10.662;2022-08-04T06:44:29;97138.38;;;41.13;21.33
72677;BME280;60755;51.374;10.662;2022-08-04T06:46:57;97146.03;;;41.60;20.67
72677;BME280;60755;51.374;10.662;2022-08-04T06:49:24;97144.28;;;41.41;20.83
72677;BME280;60755;51.374;10.662;2022-08-04T06:51:52;97144.84;;;39.90;21.62
72677;BME280;60755;51.374;10.662;2022-08-04T06:54:22;97137.47;;;39.87;22.02
72677;BME280;60755;51.374;10.662;2022-08-04T06:56:50;97143.59;;;37.76;26.19
72677;BME280;60755;51.374;10.662;2022-08-04T06:59:19;97140.59;;;39.01;23.19
72677;BME280;60755;51.374;10.662;2022-08-04T07:01:47;97141.00;;;37.93;24.19
72677;BME280;60755;51.374;10.662;2022-08-04T07:04:14;97148.56;;;37.04;26.20
72677;BME280;60755;51.374;10.662;2022-08-04T07:06:41;97143.31;;;36.52;26.74
72677;BME280;60755;51.374;10.662;2022-08-04T07:09:07;97146.69;;;39.28;23.42
72677;BME280;60755;51.374;10.662;2022-08-04T07:11:35;97141.72;;;40.79;21.07
72677;BME280;60755;51.374;10.662;2022-08-04T07:14:03;97145.09;;;40.58;19.36
72677;BME280;60755;51.374;10.662;2022-08-04T07:16:31;97132.28;;;39.89;22.20
72677;BME280;60755;51.374;10.662;2022-08-04T07:18:59;97133.41;;;39.76;21.17
72677;BME280;60755;51.374;10.662;2022-08-04T07:21:25;97139.41;;;39.70;21.82
72677;BME280;60755;51.374;10.662;2022-08-04T07:23:52;97134.28;;;40.34;20.59
72677;BME280;60755;51.374;10.662;2022-08-04T07:26:25;97141.56;;;38.31;22.77
72677;BME280;60755;51.374;10.662;2022-08-04T07:28:53;97136.16;;;39.92;21.80
72677;BME280;60755;51.374;10.662;2022-08-04T07:31:22;97139.16;;;39.97;19.85
72677;BME280;60755;51.374;10.662;2022-08-04T07:33:49;97140.88;;;38.86;23.22
72677;BME280;60755;51.374;10.662;2022-08-04T07:36:15;97147.34;;;37.39;23.36
72677;BME280;60755;51.374;10.662;2022-08-04T07:38:42;97129.25;;;36.09;24.57
72677;BME280;60755;51.374;10.662;2022-08-04T07:41:09;97141.00;;;34.77;26.48
72677;BME280;60755;51.374;10.662;2022-08-04T07:43:36;97139.94;;;34.42;27.37
72677;BME280;60755;51.374;10.662;2022-08-04T07:46:04;97143.44;;;34.36;27.58
72677;BME280;60755;51.374;10.662;2022-08-04T07:48:31;97135.66;;;34.16;29.99
72677;BME280;60755;51.374;10.662;2022-08-04T07:50:57;97139.56;;;34.33;30.15
72677;BME280;60755;51.374;10.662;2022-08-04T07:53:25;97138.75;;;34.54;28.21
72677;BME280;60755;51.374;10.662;2022-08-04T07:55:51;97138.66;;;34.75;29.18
72677;BME280;60755;51.374;10.662;2022-08-04T07:58:18;97142.72;;;33.96;29.15
72677;BME280;60755;51.374;10.662;2022-08-04T08:00:45;97139.91;;;34.53;28.12
72677;BME280;60755;51.374;10.662;2022-08-04T08:03:14;97134.03;;;34.62;30.00
72677;BME280;60755;51.374;10.662;2022-08-04T08:05:41;97133.09;;;35.04;27.13
72677;BME280;60755;51.374;10.662;2022-08-04T08:08:07;97128.47;;;34.97;29.25
72677;BME280;60755;51.374;10.662;2022-08-04T08:10:36;97126.91;;;35.63;27.24
72677;BME280;60755;51.374;10.662;2022-08-04T08:13:03;97125.34;;;35.62;27.80
72677;BME280;60755;51.374;10.662;2022-08-04T08:15:30;97124.53;;;36.09;26.35
72677;BME280;60755;51.374;10.662;2022-08-04T08:17:56;97122.91;;;36.15;27.18
72677;BME280;60755;51.374;10.662;2022-08-04T08:20:24;97123.25;;;35.76;27.14
72677;BME280;60755;51.374;10.662;2022-08-04T08:22:50;97118.31;;;34.94;27.43
72677;BME280;60755;51.374;10.662;2022-08-04T08:25:17;97123.88;;;34.62;29.20
72677;BME280;60755;51.374;10.662;2022-08-04T08:27:44;97127.78;;;34.61;28.29
72677;BME280;60755;51.374;10.662;2022-08-04T08:30:11;97116.16;;;34.29;28.41
72677;BME280;60755;51.374;10.662;2022-08-04T08:32:37;97119.31;;;34.06;29.34
72677;BME280;60755;51.374;10.662;2022-08-04T08:35:04;97120.84;;;33.43;30.39
72677;BME280;60755;51.374;10.662;2022-08-04T08:37:34;97116.94;;;33.29;29.93
72677;BME280;60755;51.374;10.662;2022-08-04T08:40:19;97111.31;;;32.79;30.52
72677;BME280;60755;51.374;10.662;2022-08-04T08:43:12;97112.97;;;33.12;30.30
72677;BME280;60755;51.374;10.662;2022-08-04T08:49:01;97120.00;;;33.06;30.65
72677;BME280;60755;51.374;10.662;2022-08-04T08:51:39;97116.16;;;33.22;30.61
72677;BME280;60755;51.374;10.662;2022-08-04T08:54:26;97116.00;;;32.82;30.05
72677;BME280;60755;51.374;10.662;2022-08-04T08:57:10;97119.59;;;32.97;29.54
72677;BME280;60755;51.374;10.662;2022-08-04T08:59:49;97117.56;;;32.83;29.85
72677;BME280;60755;51.374;10.662;2022-08-04T09:02:41;97113.63;;;32.70;29.80
72677;BME280;60755;51.374;10.662;2022-08-04T09:05:23;97115.94;;;32.68;31.14
72677;BME280;60755;51.374;10.662;2022-08-04T09:08:09;97112.88;;;32.77;28.98
72677;BME280;60755;51.374;10.662;2022-08-04T09:10:43;97115.94;;;32.72;29.64
72677;BME280;60755;51.374;10.662;2022-08-04T09:13:16;97119.16;;;32.95;30.29
72677;BME280;60755;51.374;10.662;2022-08-04T09:15:51;97111.69;;;32.74;31.15
72677;BME280;60755;51.374;10.662;2022-08-04T09:18:23;97117.66;;;33.05;29.73
72677;BME280;60755;51.374;10.662;2022-08-04T09:20:55;97113.84;;;33.42;29.23
72677;BME280;60755;51.374;10.662;2022-08-04T09:23:31;97114.63;;;33.67;28.84
72677;BME280;60755;51.374;10.662;2022-08-04T09:26:05;97110.00;;;33.89;28.73
72677;BME280;60755;51.374;10.662;2022-08-04T09:28:46;97111.53;;;33.65;30.14
72677;BME280;60755;51.374;10.662;2022-08-04T09:31:18;97115.41;;;34.14;27.52
72677;BME280;60755;51.374;10.662;2022-08-04T09:33:51;97108.03;;;33.54;29.26
72677;BME280;60755;51.374;10.662;2022-08-04T09:36:29;97116.16;;;33.36;30.51
72677;BME280;60755;51.374;10.662;2022-08-04T09:39:05;97111.53;;;33.86;29.22
72677;BME280;60755;51.374;10.662;2022-08-04T09:41:43;97111.53;;;33.54;29.10
72677;BME280;60755;51.374;10.662;2022-08-04T09:44:17;97115.44;;;33.64;28.33
72677;BME280;60755;51.374;10.662;2022-08-04T09:46:51;97108.44;;;33.70;29.23
72677;BME280;60755;51.374;10.662;2022-08-04T09:49:25;97106.47;;;33.92;29.32
72677;BME280;60755;51.374;10.662;2022-08-04T09:52:00;97096.72;;;34.12;27.93
72677;BME280;60755;51.374;10.662;2022-08-04T09:54:42;97102.13;;;34.27;29.21
72677;BME280;60755;51.374;10.662;2022-08-04T09:57:19;97093.97;;;34.16;29.12
72677;BME280;60755;51.374;10.662;2022-08-04T09:59:56;97093.13;;;34.40;28.26
72677;BME280;60755;51.374;10.662;2022-08-04T10:02:24;97091.59;;;34.29;28.13
72677;BME280;60755;51.374;10.662;2022-08-04T10:04:55;97087.31;;;34.24;28.36
72677;BME280;60755;51.374;10.662;2022-08-04T10:10:33;97092.00;;;33.34;30.21
72677;BME280;60755;51.374;10.662;2022-08-04T10:13:32;97087.00;;;33.93;29.58
72677;BME280;60755;51.374;10.662;2022-08-04T10:16:15;97081.91;;;34.03;28.88
72677;BME280;60755;51.374;10.662;2022-08-04T10:18:55;97081.91;;;33.67;29.18
72677;BME280;60755;51.374;10.662;2022-08-04T10:21:32;97086.59;;;34.02;27.70
72677;BME280;60755;51.374;10.662;2022-08-04T10:24:14;97081.16;;;33.66;29.27
72677;BME280;60755;51.374;10.662;2022-08-04T10:26:47;97074.13;;;33.83;28.78
72677;BME280;60755;51.374;10.662;2022-08-04T10:29:23;97070.94;;;34.24;28.62
72677;BME280;60755;51.374;10.662;2022-08-04T10:31:54;97078.75;;;34.15;28.32
72677;BME280;60755;51.374;10.662;2022-08-04T10:34:26;97073.34;;;34.04;28.03
72677;BME280;60755;51.374;10.662;2022-08-04T10:36:59;97079.13;;;34.17;29.89
72677;BME280;60755;51.374;10.662;2022-08-04T10:39:36;97073.28;;;34.22;28.65
72677;BME280;60755;51.374;10.662;2022-08-04T10:42:14;97070.53;;;34.36;28.75
72677;BME280;60755;51.374;10.662;2022-08-04T10:44:54;97065.00;;;34.54;27.70
72677;BME280;60755;51.374;10.662;2022-08-04T10:47:32;97067.88;;;34.01;27.90
72677;BME280;60755;51.374;10.662;2022-08-04T10:50:01;97064.38;;;33.82;28.55
72677;BME280;60755;51.374;10.662;2022-08-04T10:52:33;97062.44;;;33.29;29.74
72677;BME280;60755;51.374;10.662;2022-08-04T10:55:04;97071.75;;;33.35;30.36
72677;BME280;60755;51.374;10.662;2022-08-04T10:57:34;97056.56;;;33.27;29.76
72677;BME280;60755;51.374;10.662;2022-08-04T11:00:05;97055.84;;;33.41;31.03
72677;BME280;60755;51.374;10.662;2022-08-04T11:02:38;97049.19;;;33.81;30.00
72677;BME280;60755;51.374;10.662;2022-08-04T11:05:13;97054.66;;;33.96;29.20
72677;BME280;60755;51.374;10.662;2022-08-04T11:07:42;97060.09;;;33.99;28.96
72677;BME280;60755;51.374;10.662;2022-08-04T11:10:09;97053.09;;;34.02;29.37
72677;BME280;60755;51.374;10.662;2022-08-04T11:12:39;97050.75;;;33.97;28.31
72677;BME280;60755;51.374;10.662;2022-08-04T11:15:11;97053.03;;;34.09;28.58
72677;BME280;60755;51.374;10.662;2022-08-04T11:17:40;97049.13;;;34.17;28.38
72677;BME280;60755;51.374;10.662;2022-08-04T11:20:13;97046.88;;;33.44;29.53
72677;BME280;60755;51.374;10.662;2022-08-04T11:22:44;97059.66;;;34.18;28.84
72677;BME280;60755;51.374;10.662;2022-08-04T11:25:16;97042.00;;;34.59;28.09
72677;BME280;60755;51.374;10.662;2022-08-04T11:27:52;97040.47;;;34.47;28.17
72677;BME280;60755;51.374;10.662;2022-08-04T11:30:24;97043.09;;;34.65;27.86
72677;BME280;60755;51.374;10.662;2022-08-04T11:32:56;97047.47;;;34.55;28.65
72677;BME280;60755;51.374;10.662;2022-08-04T11:35:30;97051.47;;;34.22;28.38
72677;BME280;60755;51.374;10.662;2022-08-04T11:38:03;97044.78;;;34.41;27.60
72677;BME280;60755;51.374;10.662;2022-08-04T11:40:36;97046.84;;;34.05;28.37
72677;BME280;60755;51.374;10.662;2022-08-04T11:43:08;97040.09;;;34.38;28.12
72677;BME280;60755;51.374;10.662;2022-08-04T11:45:44;97036.34;;;34.98;27.80
72677;BME280;60755;51.374;10.662;2022-08-04T11:48:16;97040.56;;;35.62;26.86
72677;BME280;60755;51.374;10.662;2022-08-04T11:50:49;97037.13;;;35.50;26.92
72677;BME280;60755;51.374;10.662;2022-08-04T11:53:19;97035.34;;;35.74;27.16
72677;BME280;60755;51.374;10.662;2022-08-04T11:55:49;97035.28;;;35.33;28.22
72677;BME280;60755;51.374;10.662;2022-08-04T11:58:17;97035.88;;;35.62;27.02
72677;BME280;60755;51.374;10.662;2022-08-04T12:00:53;97041.91;;;35.36;26.18
72677;BME280;60755;51.374;10.662;2022-08-04T12:03:31;97036.34;;;34.94;27.78
72677;BME280;60755;51.374;10.662;2022-08-04T12:06:09;97036.09;;;34.67;27.68
72677;BME280;60755;51.374;10.662;2022-08-04T12:08:59;97039.03;;;35.01;27.81
72677;BME280;60755;51.374;10.662;2022-08-04T12:11:37;97033.91;;;35.11;26.44
72677;BME280;60755;51.374;10.662;2022-08-04T12:14:14;97032.13;;;35.38;25.89
72677;BME280;60755;51.374;10.662;2022-08-04T12:16:51;97029.47;;;35.27;27.65
72677;BME280;60755;51.374;10.662;2022-08-04T12:19:28;97029.94;;;35.67;26.89
72677;BME280;60755;51.374;10.662;2022-08-04T12:21:58;97035.00;;;35.69;26.60
72677;BME280;60755;51.374;10.662;2022-08-04T12:24:32;97038.78;;;35.85;26.52
72677;BME280;60755;51.374;10.662;2022-08-04T12:27:12;97028.16;;;35.95;25.97
72677;BME280;60755;51.374;10.662;2022-08-04T12:29:40;97026.41;;;36.08;25.56
72677;BME280;60755;51.374;10.662;2022-08-04T12:32:16;97024.75;;;35.76;26.63
72677;BME280;60755;51.374;10.662;2022-08-04T12:34:48;97023.34;;;35.65;26.14
72677;BME280;60755;51.374;10.662;2022-08-04T12:37:27;97022.75;;;35.43;27.53
72677;BME280;60755;51.374;10.662;2022-08-04T12:40:00;97022.91;;;35.18;26.04
72677;BME280;60755;51.374;10.662;2022-08-04T12:42:33;97015.94;;;35.62;26.04
72677;BME280;60755;51.374;10.662;2022-08-04T12:45:04;97015.13;;;36.06;25.48
72677;BME280;60755;51.374;10.662;2022-08-04T12:47:34;97022.75;;;35.43;26.41
72677;BME280;60755;51.374;10.662;2022-08-04T12:50:03;97022.75;;;35.43;25.95
72677;BME280;60755;51.374;10.662;2022-08-04T12:52:32;97020.63;;;35.09;26.87
72677;BME280;60755;51.374;10.662;2022-08-04T12:55:01;97015.91;;;35.13;26.23
72677;BME280;60755;51.374;10.662;2022-08-04T12:57:27;97010.22;;;35.45;26.78
72677;BME280;60755;51.374;10.662;2022-08-04T12:59:58;97008.03;;;35.71;26.53
72677;BME280;60755;51.374;10.662;2022-08-04T13:02:26;97010.91;;;35.53;26.55
72677;BME280;60755;51.374;10.662;2022-08-04T13:04:59;97002.28;;;35.10;27.20
72677;BME280;60755;51.374;10.662;2022-08-04T13:07:34;97004.63;;;34.31;27.83
72677;BME280;60755;51.374;10.662;2022-08-04T13:10:05;97002.09;;;34.75;27.18
72677;BME280;60755;51.374;10.662;2022-08-04T13:12:36;97000.09;;;34.90;26.83
72677;BME280;60755;51.374;10.662;2022-08-04T13:15:08;96994.63;;;34.90;27.15
72677;BME280;60755;51.374;10.662;2022-08-04T13:17:47;96994.50;;;35.04;27.66
72677;BME280;60755;51.374;10.662;2022-08-04T13:20:16;96996.50;;;35.00;27.30
72677;BME280;60755;51.374;10.662;2022-08-04T13:22:48;97000.00;;;35.01;27.82
72677;BME280;60755;51.374;10.662;2022-08-04T13:25:15;96988.00;;;34.81;27.68
72677;BME280;60755;51.374;10.662;2022-08-04T13:27:42;96994.50;;;35.08;27.16
72677;BME280;60755;51.374;10.662;2022-08-04T13:30:11;96982.53;;;35.36;27.18
72677;BME280;60755;51.374;10.662;2022-08-04T13:32:39;96993.59;;;35.67;26.25
72677;BME280;60755;51.374;10.662;2022-08-04T13:35:08;96991.63;;;35.71;26.64
72677;BME280;60755;51.374;10.662;2022-08-04T13:37:38;96995.63;;;36.00;26.61
72677;BME280;60755;51.374;10.662;2022-08-04T13:40:07;96992.53;;;35.98;26.41
72677;BME280;60755;51.374;10.662;2022-08-04T13:42:36;96987.53;;;36.24;25.07
72677;BME280;60755;51.374;10.662;2022-08-04T13:45:05;96987.47;;;35.97;25.90
72677;BME280;60755;51.374;10.662;2022-08-04T13:47:34;96981.25;;;35.93;26.29
72677;BME280;60755;51.374;10.662;2022-08-04T13:50:17;96978.25;;;35.76;26.47
72677;BME280;60755;51.374;10.662;2022-08-04T13:52:51;96978.88;;;36.29;25.46
72677;BME280;60755;51.374;10.662;2022-08-04T13:55:22;96986.31;;;36.59;26.43
72677;BME280;60755;51.374;10.662;2022-08-04T13:57:53;96986.88;;;36.74;24.74
72677;BME280;60755;51.374;10.662;2022-08-04T14:00:21;96980.75;;;36.93;25.37